sensor_id;sensor_type;location;lat;lon;timestamp;temperature;humidity
27540;DHT22;15906;52.046;4.724;2022-12-17T00:02:40;-0.80;99.90
27540;DHT22;15906;52.046;4.724;2022-12-17T00:05:24;-0.80;99.90
27540;DHT22;15906;52.046;4.724;2022-12-17T00:08:08;-0.80;99.90
27540;DHT22;15906;52.046;4.724;2022-12-17T00:10:53;-0.80;99.90
27540;DHT22;15906;52.046;4.724;2022-12-17T00:13:37;-0.80;99.90
27540;DHT22;15906;52.046;4.724;2022-12-17T00:16:21;-0.80;99.90
27540;DHT22;15906;52.046;4.724;2022-12-17T00:19:05;-0.80;99.90
27540;DHT22;15906;52.046;4.724;2022-12-17T00:21:49;-0.80;99.90
27540;DHT22;15906;52.046;4.724;2022-12-17T00:24:33;-0.80;99.90
27540;DHT22;15906;52.046;4.724;2022-12-17T00:27:17;-0.70;99.90
27540;DHT22;15906;52.046;4.724;2022-12-17T00:30:01;-0.70;99.90
27540;DHT22;15906;52.046;4.724;2022-12-17T00:32:45;-0.80;99.90
27540;DHT22;15906;52.046;4.724;2022-12-17T00:35:29;-0.80;99.90
27540;DHT22;15906;52.046;4.724;2022-12-17T00:38:15;-0.90;99.90
27540;DHT22;15906;52.046;4.724;2022-12-17T00:40:59;-0.90;99.90
27540;DHT22;15906;52.046;4.724;2022-12-17T00:43:43;-0.70;99.90
27540;DHT22;15906;52.046;4.724;2022-12-17T00:46:27;-0.70;99.90
27540;DHT22;15906;52.046;4.724;2022-12-17T00:49:11;-0.80;99.90
27540;DHT22;15906;52.046;4.724;2022-12-17T00:51:55;-0.70;99.90
27540;DHT22;15906;52.046;4.724;2022-12-17T00:54:39;-0.70;99.90
27540;DHT22;15906;52.046;4.724;2022-12-17T00:57:23;-0.60;99.90
27540;DHT22;15906;52.046;4.724;2022-12-17T01:00:08;-0.60;99.90
27540;DHT22;15906;52.046;4.724;2022-12-17T01:02:52;-0.60;99.90
27540;DHT22;15906;52.046;4.724;2022-12-17T01:05:36;-0.60;99.90
27540;DHT22;15906;52.046;4.724;2022-12-17T01:08:20;-0.60;99.90
27540;DHT22;15906;52.046;4.724;2022-12-17T01:11:06;-0.50;99.90
27540;DHT22;15906;52.046;4.724;2022-12-17T01:13:51;-0.50;99.90
27540;DHT22;15906;52.046;4.724;2022-12-17T01:16:35;-0.50;99.90
27540;DHT22;15906;52.046;4.724;2022-12-17T01:19:19;-0.60;99.90
27540;DHT22;15906;52.046;4.724;2022-12-17T01:22:04;-0.60;99.90
27540;DHT22;15906;52.046;4.724;2022-12-17T01:24:48;-0.60;99.90
27540;DHT22;15906;52.046;4.724;2022-12-17T01:27:32;-0.50;99.90
27540;DHT22;15906;52.046;4.724;2022-12-17T01:30:16;-0.50;99.90
27540;DHT22;15906;52.046;4.724;2022-12-17T01:33:02;-0.50;99.90
27540;DHT22;15906;52.046;4.724;2022-12-17T01:35:46;-0.60;99.90
27540;DHT22;15906;52.046;4.724;2022-12-17T01:38:30;-0.60;99.90
27540;DHT22;15906;52.046;4.724;2022-12-17T01:41:15;-0.60;99.90
27540;DHT22;15906;52.046;4.724;2022-12-17T01:43:59;-0.60;99.90
27540;DHT22;15906;52.046;4.724;2022-12-17T01:46:49;-0.60;99.90
27540;DHT22;15906;52.046;4.724;2022-12-17T01:49:33;-0.60;99.90
27540;DHT22;15906;52.046;4.724;2022-12-17T01:52:18;-0.50;99.90
27540;DHT22;15906;52.046;4.724;2022-12-17T01:55:03;-0.60;99.90
27540;DHT22;15906;52.046;4.724;2022-12-17T01:57:48;-0.60;99.90
27540;DHT22;15906;52.046;4.724;2022-12-17T02:00:33;-0.50;99.90
27540;DHT22;15906;52.046;4.724;2022-12-17T02:03:18;-0.50;99.90
27540;DHT22;15906;52.046;4.724;2022-12-17T02:06:17;-0.50;99.90
27540;DHT22;15906;52.046;4.724;2022-12-17T02:09:20;-0.50;99.90
27540;DHT22;15906;52.046;4.724;2022-12-17T02:12:26;-0.50;99.90
27540;DHT22;15906;52.046;4.724;2022-12-17T02:15:31;-0.50;99.90
27540;DHT22;15906;52.046;4.724;2022-12-17T02:18:21;-0.50;99.90
27540;DHT22;15906;52.046;4.724;2022-12-17T02:21:09;-0.40;99.90
27540;DHT22;15906;52.046;4.724;2022-12-17T02:24:13;-0.50;99.90
27540;DHT22;15906;52.046;4.724;2022-12-17T02:27:03;-0.50;99.90
27540;DHT22;15906;52.046;4.724;2022-12-17T02:29:50;-0.50;99.90
27540;DHT22;15906;52.046;4.724;2022-12-17T02:32:37;-0.50;99.90
27540;DHT22;15906;52.046;4.724;2022-12-17T02:35:29;-0.40;99.90
27540;DHT22;15906;52.046;4.724;2022-12-17T02:38:24;-0.50;99.90
27540;DHT22;15906;52.046;4.724;2022-12-17T02:41:19;-0.50;99.90
27540;DHT22;15906;52.046;4.724;2022-12-17T02:44:06;-0.50;99.90
27540;DHT22;15906;52.046;4.724;2022-12-17T02:46:52;-0.50;99.90
27540;DHT22;15906;52.046;4.724;2022-12-17T02:49:37;-0.60;99.90
27540;DHT22;15906;52.046;4.724;2022-12-17T02:52:21;-0.50;99.90
27540;DHT22;15906;52.046;4.724;2022-12-17T02:55:06;-0.60;99.90
27540;DHT22;15906;52.046;4.724;2022-12-17T02:57:50;-0.60;99.90
27540;DHT22;15906;52.046;4.724;2022-12-17T03:00:34;-0.60;99.90
27540;DHT22;15906;52.046;4.724;2022-12-17T03:03:19;-0.60;99.90
27540;DHT22;15906;52.046;4.724;2022-12-17T03:06:03;-0.60;99.90
27540;DHT22;15906;52.046;4.724;2022-12-17T03:08:48;-0.70;99.90
27540;DHT22;15906;52.046;4.724;2022-12-17T03:11:32;-0.70;99.90
27540;DHT22;15906;52.046;4.724;2022-12-17T03:14:16;-0.60;99.90
27540;DHT22;15906;52.046;4.724;2022-12-17T03:17:00;-0.70;99.90
27540;DHT22;15906;52.046;4.724;2022-12-17T03:19:44;-0.70;99.90
27540;DHT22;15906;52.046;4.724;2022-12-17T03:22:29;-0.60;99.90
27540;DHT22;15906;52.046;4.724;2022-12-17T03:25:26;-0.60;99.90
27540;DHT22;15906;52.046;4.724;2022-12-17T03:28:11;-0.60;99.90
27540;DHT22;15906;52.046;4.724;2022-12-17T03:30:59;-0.60;99.90
27540;DHT22;15906;52.046;4.724;2022-12-17T03:33:44;-0.90;99.90
27540;DHT22;15906;52.046;4.724;2022-12-17T03:36:29;-0.80;99.90
27540;DHT22;15906;52.046;4.724;2022-12-17T03:39:13;-0.90;99.90
27540;DHT22;15906;52.046;4.724;2022-12-17T03:41:57;-0.90;99.90
27540;DHT22;15906;52.046;4.724;2022-12-17T03:44:41;-0.80;99.90
27540;DHT22;15906;52.046;4.724;2022-12-17T03:47:28;-0.90;99.90
27540;DHT22;15906;52.046;4.724;2022-12-17T03:50:12;-0.90;99.90
27540;DHT22;15906;52.046;4.724;2022-12-17T03:52:59;-0.90;99.90
27540;DHT22;15906;52.046;4.724;2022-12-17T03:55:43;-0.90;99.90
27540;DHT22;15906;52.046;4.724;2022-12-17T03:58:27;-1.00;99.90
27540;DHT22;15906;52.046;4.724;2022-12-17T04:01:11;-0.90;99.90
27540;DHT22;15906;52.046;4.724;2022-12-17T04:03:55;-1.00;99.90
27540;DHT22;15906;52.046;4.724;2022-12-17T04:06:39;-0.90;99.90
27540;DHT22;15906;52.046;4.724;2022-12-17T04:09:23;-0.90;99.90
27540;DHT22;15906;52.046;4.724;2022-12-17T04:12:11;-1.00;99.90
27540;DHT22;15906;52.046;4.724;2022-12-17T04:14:55;-1.00;99.90
27540;DHT22;15906;52.046;4.724;2022-12-17T04:17:39;-1.00;99.90
27540;DHT22;15906;52.046;4.724;2022-12-17T04:20:23;-1.10;99.90
27540;DHT22;15906;52.046;4.724;2022-12-17T04:23:07;-1.10;99.90
27540;DHT22;15906;52.046;4.724;2022-12-17T04:25:51;-1.10;99.90
27540;DHT22;15906;52.046;4.724;2022-12-17T04:28:35;-1.10;99.90
27540;DHT22;15906;52.046;4.724;2022-12-17T04:31:19;-1.20;99.90
27540;DHT22;15906;52.046;4.724;2022-12-17T04:34:03;-1.20;99.90
27540;DHT22;15906;52.046;4.724;2022-12-17T04:36:47;-1.20;99.90
27540;DHT22;15906;52.046;4.724;2022-12-17T04:39:31;-1.20;99.90
27540;DHT22;15906;52.046;4.724;2022-12-17T04:42:15;-1.10;99.90
27540;DHT22;15906;52.046;4.724;2022-12-17T04:44:59;-1.10;99.90
27540;DHT22;15906;52.046;4.724;2022-12-17T04:47:43;-1.10;99.90
27540;DHT22;15906;52.046;4.724;2022-12-17T04:50:27;-1.10;99.90
27540;DHT22;15906;52.046;4.724;2022-12-17T04:53:11;-1.10;99.90
27540;DHT22;15906;52.046;4.724;2022-12-17T04:55:55;-1.10;99.90
27540;DHT22;15906;52.046;4.724;2022-12-17T04:58:40;-1.20;99.90
27540;DHT22;15906;52.046;4.724;2022-12-17T05:01:37;-1.10;99.90
27540;DHT22;15906;52.046;4.724;2022-12-17T05:04:22;-1.10;99.90
27540;DHT22;15906;52.046;4.724;2022-12-17T05:07:06;-1.10;99.90
27540;DHT22;15906;52.046;4.724;2022-12-17T05:09:50;-1.10;99.90
27540;DHT22;15906;52.046;4.724;2022-12-17T05:12:34;-1.00;99.90
27540;DHT22;15906;52.046;4.724;2022-12-17T05:15:18;-1.00;99.90
27540;DHT22;15906;52.046;4.724;2022-12-17T05:18:06;-1.10;99.90
27540;DHT22;15906;52.046;4.724;2022-12-17T05:20:51;-1.10;99.90
27540;DHT22;15906;52.046;4.724;2022-12-17T05:23:35;-1.10;99.90
27540;DHT22;15906;52.046;4.724;2022-12-17T05:26:24;-1.10;99.90
27540;DHT22;15906;52.046;4.724;2022-12-17T05:29:08;-1.10;99.90
27540;DHT22;15906;52.046;4.724;2022-12-17T05:31:53;-1.10;99.90
27540;DHT22;15906;52.046;4.724;2022-12-17T05:34:37;-1.00;99.90
27540;DHT22;15906;52.046;4.724;2022-12-17T05:37:22;-1.00;99.90
27540;DHT22;15906;52.046;4.724;2022-12-17T05:40:07;-1.10;99.90
27540;DHT22;15906;52.046;4.724;2022-12-17T05:42:59;-1.10;99.90
27540;DHT22;15906;52.046;4.724;2022-12-17T05:45:54;-1.10;99.90
27540;DHT22;15906;52.046;4.724;2022-12-17T05:48:38;-1.10;99.90
27540;DHT22;15906;52.046;4.724;2022-12-17T05:51:23;-1.10;99.90
27540;DHT22;15906;52.046;4.724;2022-12-17T05:54:07;-1.10;99.90
27540;DHT22;15906;52.046;4.724;2022-12-17T05:56:52;-1.00;99.90
27540;DHT22;15906;52.046;4.724;2022-12-17T05:59:36;-1.00;99.90
27540;DHT22;15906;52.046;4.724;2022-12-17T06:02:20;-1.00;99.90
27540;DHT22;15906;52.046;4.724;2022-12-17T06:05:04;-1.00;99.90
27540;DHT22;15906;52.046;4.724;2022-12-17T06:07:49;-1.10;99.90
27540;DHT22;15906;52.046;4.724;2022-12-17T06:10:33;-1.10;99.90
27540;DHT22;15906;52.046;4.724;2022-12-17T06:13:17;-1.00;99.90
27540;DHT22;15906;52.046;4.724;2022-12-17T06:16:01;-1.10;99.90
27540;DHT22;15906;52.046;4.724;2022-12-17T06:18:46;-1.10;99.90
27540;DHT22;15906;52.046;4.724;2022-12-17T06:21:30;-1.00;99.90
27540;DHT22;15906;52.046;4.724;2022-12-17T06:24:14;-0.90;99.90
27540;DHT22;15906;52.046;4.724;2022-12-17T06:26:58;-1.00;99.90
27540;DHT22;15906;52.046;4.724;2022-12-17T06:29:42;-0.90;99.90
27540;DHT22;15906;52.046;4.724;2022-12-17T06:32:26;-1.00;99.90
27540;DHT22;15906;52.046;4.724;2022-12-17T06:35:10;-0.90;99.90
27540;DHT22;15906;52.046;4.724;2022-12-17T06:38:03;-0.90;99.90
27540;DHT22;15906;52.046;4.724;2022-12-17T06:40:47;-1.00;99.90
27540;DHT22;15906;52.046;4.724;2022-12-17T06:43:39;-0.90;99.90
27540;DHT22;15906;52.046;4.724;2022-12-17T06:46:23;-0.90;99.90
27540;DHT22;15906;52.046;4.724;2022-12-17T06:49:07;-0.90;99.90
27540;DHT22;15906;52.046;4.724;2022-12-17T06:51:52;-0.90;99.90
27540;DHT22;15906;52.046;4.724;2022-12-17T06:54:36;-0.90;99.90
27540;DHT22;15906;52.046;4.724;2022-12-17T06:57:20;-0.90;99.90
27540;DHT22;15906;52.046;4.724;2022-12-17T07:00:05;-0.80;99.90
27540;DHT22;15906;52.046;4.724;2022-12-17T07:02:56;-0.80;99.90
27540;DHT22;15906;52.046;4.724;2022-12-17T07:05:41;-0.80;99.90
27540;DHT22;15906;52.046;4.724;2022-12-17T07:08:25;-0.80;99.90
27540;DHT22;15906;52.046;4.724;2022-12-17T07:11:09;-0.80;99.90
27540;DHT22;15906;52.046;4.724;2022-12-17T07:13:54;-0.90;99.90
27540;DHT22;15906;52.046;4.724;2022-12-17T07:16:38;-0.80;99.90
27540;DHT22;15906;52.046;4.724;2022-12-17T07:19:22;-0.80;99.90
27540;DHT22;15906;52.046;4.724;2022-12-17T07:22:06;-0.80;99.90
27540;DHT22;15906;52.046;4.724;2022-12-17T07:24:50;-0.80;99.90
27540;DHT22;15906;52.046;4.724;2022-12-17T07:27:34;-0.80;99.90
27540;DHT22;15906;52.046;4.724;2022-12-17T07:30:18;-0.70;99.90
27540;DHT22;15906;52.046;4.724;2022-12-17T07:33:09;-0.70;99.90
27540;DHT22;15906;52.046;4.724;2022-12-17T07:35:54;-0.70;99.90
27540;DHT22;15906;52.046;4.724;2022-12-17T07:38:39;-0.70;99.90
27540;DHT22;15906;52.046;4.724;2022-12-17T07:41:24;-0.70;99.90
27540;DHT22;15906;52.046;4.724;2022-12-17T07:44:08;-0.70;99.90
27540;DHT22;15906;52.046;4.724;2022-12-17T07:46:54;-0.70;99.90
27540;DHT22;15906;52.046;4.724;2022-12-17T07:49:38;-0.70;99.90
27540;DHT22;15906;52.046;4.724;2022-12-17T07:52:22;-0.70;99.90
27540;DHT22;15906;52.046;4.724;2022-12-17T07:55:07;-0.80;99.90
27540;DHT22;15906;52.046;4.724;2022-12-17T07:57:59;-0.80;99.90
27540;DHT22;15906;52.046;4.724;2022-12-17T08:00:43;-0.80;99.90
27540;DHT22;15906;52.046;4.724;2022-12-17T08:03:27;-0.80;99.90
27540;DHT22;15906;52.046;4.724;2022-12-17T08:06:12;-0.90;99.90
27540;DHT22;15906;52.046;4.724;2022-12-17T08:08:56;-1.00;99.90
27540;DHT22;15906;52.046;4.724;2022-12-17T08:11:40;-1.00;99.90
27540;DHT22;15906;52.046;4.724;2022-12-17T08:14:24;-1.00;99.90
27540;DHT22;15906;52.046;4.724;2022-12-17T08:17:08;-1.00;99.90
27540;DHT22;15906;52.046;4.724;2022-12-17T08:19:52;-1.00;99.90
27540;DHT22;15906;52.046;4.724;2022-12-17T08:22:36;-1.00;99.90
27540;DHT22;15906;52.046;4.724;2022-12-17T08:25:20;-1.00;99.90
27540;DHT22;15906;52.046;4.724;2022-12-17T08:28:06;-1.10;99.90
27540;DHT22;15906;52.046;4.724;2022-12-17T08:30:50;-1.10;99.90
27540;DHT22;15906;52.046;4.724;2022-12-17T08:33:34;-1.10;99.90
27540;DHT22;15906;52.046;4.724;2022-12-17T08:36:18;-1.30;99.90
27540;DHT22;15906;52.046;4.724;2022-12-17T08:39:02;-1.30;99.90
27540;DHT22;15906;52.046;4.724;2022-12-17T08:41:47;-1.30;99.90
27540;DHT22;15906;52.046;4.724;2022-12-17T08:44:31;-1.30;99.90
27540;DHT22;15906;52.046;4.724;2022-12-17T08:47:15;-1.30;99.90
27540;DHT22;15906;52.046;4.724;2022-12-17T08:50:00;-1.40;99.90
27540;DHT22;15906;52.046;4.724;2022-12-17T08:52:59;-1.30;99.90
27540;DHT22;15906;52.046;4.724;2022-12-17T08:55:43;-1.40;99.90
27540;DHT22;15906;52.046;4.724;2022-12-17T08:58:28;-1.50;99.90
27540;DHT22;15906;52.046;4.724;2022-12-17T09:01:12;-1.40;99.90
27540;DHT22;15906;52.046;4.724;2022-12-17T09:03:56;-1.50;99.90
27540;DHT22;15906;52.046;4.724;2022-12-17T09:06:40;-1.60;99.90
27540;DHT22;15906;52.046;4.724;2022-12-17T09:09:24;-1.60;99.90
27540;DHT22;15906;52.046;4.724;2022-12-17T09:12:08;-1.70;99.90
27540;DHT22;15906;52.046;4.724;2022-12-17T09:14:52;-1.60;99.90
27540;DHT22;15906;52.046;4.724;2022-12-17T09:17:36;-1.60;99.90
27540;DHT22;15906;52.046;4.724;2022-12-17T09:20:20;-1.60;99.90
27540;DHT22;15906;52.046;4.724;2022-12-17T09:23:04;-1.60;99.90
27540;DHT22;15906;52.046;4.724;2022-12-17T09:25:53;-1.60;99.90
27540;DHT22;15906;52.046;4.724;2022-12-17T09:28:37;-1.70;99.90
27540;DHT22;15906;52.046;4.724;2022-12-17T09:31:21;-1.70;99.90
27540;DHT22;15906;52.046;4.724;2022-12-17T09:34:05;-1.60;99.90
27540;DHT22;15906;52.046;4.724;2022-12-17T09:36:49;-1.50;99.90
27540;DHT22;15906;52.046;4.724;2022-12-17T09:39:33;-1.40;99.90
27540;DHT22;15906;52.046;4.724;2022-12-17T09:48:34;-1.50;99.90
27540;DHT22;15906;52.046;4.724;2022-12-17T09:51:24;-1.40;99.90
27540;DHT22;15906;52.046;4.724;2022-12-17T09:54:24;-1.30;99.90
27540;DHT22;15906;52.046;4.724;2022-12-17T09:57:13;-1.20;99.90
27540;DHT22;15906;52.046;4.724;2022-12-17T09:59:58;-1.30;99.90
27540;DHT22;15906;52.046;4.724;2022-12-17T10:02:50;-1.20;99.90
27540;DHT22;15906;52.046;4.724;2022-12-17T10:05:35;-1.20;99.90
27540;DHT22;15906;52.046;4.724;2022-12-17T10:08:20;-1.30;99.90
27540;DHT22;15906;52.046;4.724;2022-12-17T10:11:20;-1.30;99.90
27540;DHT22;15906;52.046;4.724;2022-12-17T10:14:14;-1.30;99.90
27540;DHT22;15906;52.046;4.724;2022-12-17T10:16:58;-1.20;99.90
27540;DHT22;15906;52.046;4.724;2022-12-17T10:19:43;-1.20;99.90
27540;DHT22;15906;52.046;4.724;2022-12-17T10:22:28;-1.10;99.90
27540;DHT22;15906;52.046;4.724;2022-12-17T10:25:20;-1.10;99.90
27540;DHT22;15906;52.046;4.724;2022-12-17T10:28:10;-1.00;99.90
27540;DHT22;15906;52.046;4.724;2022-12-17T10:30:55;-0.90;99.90
27540;DHT22;15906;52.046;4.724;2022-12-17T10:33:40;-0.90;99.90
27540;DHT22;15906;52.046;4.724;2022-12-17T10:36:25;-0.90;99.90
27540;DHT22;15906;52.046;4.724;2022-12-17T10:39:20;-0.70;99.90
27540;DHT22;15906;52.046;4.724;2022-12-17T10:42:26;-0.60;99.90
27540;DHT22;15906;52.046;4.724;2022-12-17T10:45:29;-0.50;99.90
27540;DHT22;15906;52.046;4.724;2022-12-17T10:48:27;-0.40;99.90
27540;DHT22;15906;52.046;4.724;2022-12-17T10:51:35;-0.40;99.90
27540;DHT22;15906;52.046;4.724;2022-12-17T10:57:30;-0.20;99.90
27540;DHT22;15906;52.046;4.724;2022-12-17T11:00:30;0.00;99.90
27540;DHT22;15906;52.046;4.724;2022-12-17T11:06:16;0.10;99.90
27540;DHT22;15906;52.046;4.724;2022-12-17T11:09:02;0.00;99.90
27540;DHT22;15906;52.046;4.724;2022-12-17T11:11:47;0.00;99.90
27540;DHT22;15906;52.046;4.724;2022-12-17T11:14:36;0.20;99.90
27540;DHT22;15906;52.046;4.724;2022-12-17T11:17:23;0.20;99.90
27540;DHT22;15906;52.046;4.724;2022-12-17T11:23:23;0.50;99.90
27540;DHT22;15906;52.046;4.724;2022-12-17T11:26:13;0.60;99.90
27540;DHT22;15906;52.046;4.724;2022-12-17T11:28:58;0.60;99.90
27540;DHT22;15906;52.046;4.724;2022-12-17T11:40:40;0.80;99.90
27540;DHT22;15906;52.046;4.724;2022-12-17T11:53:05;1.10;99.90
27540;DHT22;15906;52.046;4.724;2022-12-17T11:59:34;1.10;99.90
27540;DHT22;15906;52.046;4.724;2022-12-17T12:05:53;0.90;99.90
27540;DHT22;15906;52.046;4.724;2022-12-17T12:11:39;0.90;99.90
27540;DHT22;15906;52.046;4.724;2022-12-17T12:14:34;0.80;99.90
27540;DHT22;15906;52.046;4.724;2022-12-17T12:20:46;0.70;99.90
27540;DHT22;15906;52.046;4.724;2022-12-17T12:23:50;0.80;99.90
27540;DHT22;15906;52.046;4.724;2022-12-17T12:27:05;0.70;99.90
27540;DHT22;15906;52.046;4.724;2022-12-17T12:35:59;0.50;99.90
27540;DHT22;15906;52.046;4.724;2022-12-17T12:38:46;0.60;99.90
27540;DHT22;15906;52.046;4.724;2022-12-17T12:41:49;0.60;99.90
27540;DHT22;15906;52.046;4.724;2022-12-17T12:53:56;0.50;99.90
27540;DHT22;15906;52.046;4.724;2022-12-17T12:56:41;0.30;99.90
27540;DHT22;15906;52.046;4.724;2022-12-17T12:59:26;0.40;99.90
27540;DHT22;15906;52.046;4.724;2022-12-17T13:05:16;0.50;99.90
27540;DHT22;15906;52.046;4.724;2022-12-17T13:10:29;0.60;99.90
27540;DHT22;15906;52.046;4.724;2022-12-17T13:12:56;0.60;99.90
27540;DHT22;15906;52.046;4.724;2022-12-17T13:15:36;0.60;99.90
27540;DHT22;15906;52.046;4.724;2022-12-17T13:18:28;0.50;99.90
27540;DHT22;15906;52.046;4.724;2022-12-17T13:21:02;0.60;99.90
27540;DHT22;15906;52.046;4.724;2022-12-17T13:23:35;0.40;99.90
27540;DHT22;15906;52.046;4.724;2022-12-17T13:26:22;0.40;99.90
27540;DHT22;15906;52.046;4.724;2022-12-17T13:28:58;0.30;99.90
27540;DHT22;15906;52.046;4.724;2022-12-17T13:31:41;0.30;99.90
27540;DHT22;15906;52.046;4.724;2022-12-17T13:39:51;-0.10;99.90
27540;DHT22;15906;52.046;4.724;2022-12-17T13:42:34;0.00;99.90
27540;DHT22;15906;52.046;4.724;2022-12-17T13:45:00;0.00;99.90
27540;DHT22;15906;52.046;4.724;2022-12-17T13:47:27;-0.10;99.90
27540;DHT22;15906;52.046;4.724;2022-12-17T13:49:57;-0.10;99.90
27540;DHT22;15906;52.046;4.724;2022-12-17T13:52:25;-0.20;99.90
27540;DHT22;15906;52.046;4.724;2022-12-17T13:54:52;-0.20;99.90
27540;DHT22;15906;52.046;4.724;2022-12-17T13:57:21;-0.20;99.90
27540;DHT22;15906;52.046;4.724;2022-12-17T13:59:52;-0.20;99.90
27540;DHT22;15906;52.046;4.724;2022-12-17T14:02:26;-0.30;99.90
27540;DHT22;15906;52.046;4.724;2022-12-17T14:04:54;-0.30;99.90
27540;DHT22;15906;52.046;4.724;2022-12-17T14:07:21;-0.30;99.90
27540;DHT22;15906;52.046;4.724;2022-12-17T14:09:47;-0.30;99.90
27540;DHT22;15906;52.046;4.724;2022-12-17T14:12:14;-0.30;99.90
27540;DHT22;15906;52.046;4.724;2022-12-17T14:17:18;-0.40;99.90
27540;DHT22;15906;52.046;4.724;2022-12-17T14:19:45;-0.40;99.90
27540;DHT22;15906;52.046;4.724;2022-12-17T14:22:18;-0.50;99.90
27540;DHT22;15906;52.046;4.724;2022-12-17T14:24:45;-0.40;99.90
27540;DHT22;15906;52.046;4.724;2022-12-17T14:27:25;-0.50;99.90
27540;DHT22;15906;52.046;4.724;2022-12-17T14:29:51;-0.40;99.90
27540;DHT22;15906;52.046;4.724;2022-12-17T14:32:23;-0.50;99.90
27540;DHT22;15906;52.046;4.724;2022-12-17T14:34:49;-0.60;99.90
27540;DHT22;15906;52.046;4.724;2022-12-17T14:37:18;-0.70;99.90
27540;DHT22;15906;52.046;4.724;2022-12-17T14:39:47;-0.70;99.90
27540;DHT22;15906;52.046;4.724;2022-12-17T14:42:23;-0.80;99.90
27540;DHT22;15906;52.046;4.724;2022-12-17T14:45:00;-0.90;99.90
27540;DHT22;15906;52.046;4.724;2022-12-17T14:47:30;-0.90;99.90
27540;DHT22;15906;52.046;4.724;2022-12-17T14:50:00;-0.90;99.90
27540;DHT22;15906;52.046;4.724;2022-12-17T14:54:58;-0.80;99.90
27540;DHT22;15906;52.046;4.724;2022-12-17T14:57:23;-0.90;99.90
27540;DHT22;15906;52.046;4.724;2022-12-17T14:59:49;-0.80;99.90
27540;DHT22;15906;52.046;4.724;2022-12-17T15:02:23;-1.00;99.90
27540;DHT22;15906;52.046;4.724;2022-12-17T15:04:51;-1.00;99.90
27540;DHT22;15906;52.046;4.724;2022-12-17T15:07:25;-1.00;99.90
27540;DHT22;15906;52.046;4.724;2022-12-17T15:09:52;-1.10;99.90
27540;DHT22;15906;52.046;4.724;2022-12-17T15:12:19;-1.10;99.90
27540;DHT22;15906;52.046;4.724;2022-12-17T15:14:45;-1.10;99.90
27540;DHT22;15906;52.046;4.724;2022-12-17T15:17:11;-1.00;99.90
27540;DHT22;15906;52.046;4.724;2022-12-17T15:19:37;-1.00;99.90
27540;DHT22;15906;52.046;4.724;2022-12-17T15:22:03;-1.00;99.90
27540;DHT22;15906;52.046;4.724;2022-12-17T15:24:29;-1.00;99.90
27540;DHT22;15906;52.046;4.724;2022-12-17T15:26:55;-1.00;99.90
27540;DHT22;15906;52.046;4.724;2022-12-17T15:29:20;-1.00;99.90
27540;DHT22;15906;52.046;4.724;2022-12-17T15:31:46;-1.00;99.90
27540;DHT22;15906;52.046;4.724;2022-12-17T15:34:11;-1.10;99.90
27540;DHT22;15906;52.046;4.724;2022-12-17T15:36:37;-1.10;99.90
27540;DHT22;15906;52.046;4.724;2022-12-17T15:39:03;-1.00;99.90
27540;DHT22;15906;52.046;4.724;2022-12-17T15:41:31;-1.00;99.90
27540;DHT22;15906;52.046;4.724;2022-12-17T15:44:15;-1.00;99.90
27540;DHT22;15906;52.046;4.724;2022-12-17T15:46:41;-1.00;99.90
27540;DHT22;15906;52.046;4.724;2022-12-17T15:49:06;-1.10;99.90
27540;DHT22;15906;52.046;4.724;2022-12-17T15:51:32;-1.10;99.90
27540;DHT22;15906;52.046;4.724;2022-12-17T15:53:58;-1.10;99.90
27540;DHT22;15906;52.046;4.724;2022-12-17T15:56:26;-1.00;99.90
27540;DHT22;15906;52.046;4.724;2022-12-17T15:58:52;-1.10;99.90
27540;DHT22;15906;52.046;4.724;2022-12-17T16:01:18;-1.10;99.90
27540;DHT22;15906;52.046;4.724;2022-12-17T16:03:44;-1.00;99.90
27540;DHT22;15906;52.046;4.724;2022-12-17T16:06:10;-1.00;99.90
27540;DHT22;15906;52.046;4.724;2022-12-17T16:08:37;-1.10;99.90
27540;DHT22;15906;52.046;4.724;2022-12-17T16:11:07;-1.20;99.90
27540;DHT22;15906;52.046;4.724;2022-12-17T16:13:34;-1.20;99.90
27540;DHT22;15906;52.046;4.724;2022-12-17T16:15:59;-1.20;99.90
27540;DHT22;15906;52.046;4.724;2022-12-17T16:18:25;-1.20;99.90
27540;DHT22;15906;52.046;4.724;2022-12-17T16:20:50;-1.20;99.90
27540;DHT22;15906;52.046;4.724;2022-12-17T16:23:16;-1.20;99.90
27540;DHT22;15906;52.046;4.724;2022-12-17T16:25:42;-1.30;99.90
27540;DHT22;15906;52.046;4.724;2022-12-17T16:28:08;-1.30;99.90
27540;DHT22;15906;52.046;4.724;2022-12-17T16:30:33;-1.20;99.90
27540;DHT22;15906;52.046;4.724;2022-12-17T16:32:59;-1.30;99.90
27540;DHT22;15906;52.046;4.724;2022-12-17T16:35:25;-1.30;99.90
27540;DHT22;15906;52.046;4.724;2022-12-17T16:37:53;-1.30;99.90
27540;DHT22;15906;52.046;4.724;2022-12-17T16:40:18;-1.20;99.90
27540;DHT22;15906;52.046;4.724;2022-12-17T16:42:44;-1.20;99.90
27540;DHT22;15906;52.046;4.724;2022-12-17T16:45:10;-1.20;99.90
27540;DHT22;15906;52.046;4.724;2022-12-17T16:47:35;-1.30;99.90
27540;DHT22;15906;52.046;4.724;2022-12-17T16:50:01;-1.30;99.90
27540;DHT22;15906;52.046;4.724;2022-12-17T16:52:27;-1.30;99.90
27540;DHT22;15906;52.046;4.724;2022-12-17T16:54:52;-1.30;99.90
27540;DHT22;15906;52.046;4.724;2022-12-17T16:57:18;-1.30;99.90
27540;DHT22;15906;52.046;4.724;2022-12-17T16:59:43;-1.30;99.90
27540;DHT22;15906;52.046;4.724;2022-12-17T17:02:14;-1.20;99.90
27540;DHT22;15906;52.046;4.724;2022-12-17T17:04:39;-1.30;99.90
27540;DHT22;15906;52.046;4.724;2022-12-17T17:07:05;-1.30;99.90
27540;DHT22;15906;52.046;4.724;2022-12-17T17:09:31;-1.30;99.90
27540;DHT22;15906;52.046;4.724;2022-12-17T17:11:57;-1.30;99.90
27540;DHT22;15906;52.046;4.724;2022-12-17T17:14:23;-1.30;99.90
27540;DHT22;15906;52.046;4.724;2022-12-17T17:16:49;-1.40;99.90
27540;DHT22;15906;52.046;4.724;2022-12-17T17:19:16;-1.40;99.90
27540;DHT22;15906;52.046;4.724;2022-12-17T17:21:48;-1.50;99.90
27540;DHT22;15906;52.046;4.724;2022-12-17T17:24:17;-1.50;99.90
27540;DHT22;15906;52.046;4.724;2022-12-17T17:26:43;-1.50;99.90
27540;DHT22;15906;52.046;4.724;2022-12-17T17:29:09;-1.50;99.90
27540;DHT22;15906;52.046;4.724;2022-12-17T17:31:35;-1.60;99.90
27540;DHT22;15906;52.046;4.724;2022-12-17T17:34:11;-1.50;99.90
27540;DHT22;15906;52.046;4.724;2022-12-17T17:36:38;-1.50;99.90
27540;DHT22;15906;52.046;4.724;2022-12-17T17:39:04;-1.60;99.90
27540;DHT22;15906;52.046;4.724;2022-12-17T17:41:31;-1.60;99.90
27540;DHT22;15906;52.046;4.724;2022-12-17T17:44:10;-1.70;99.90
27540;DHT22;15906;52.046;4.724;2022-12-17T17:46:36;-1.60;99.90
27540;DHT22;15906;52.046;4.724;2022-12-17T17:49:05;-1.60;99.90
27540;DHT22;15906;52.046;4.724;2022-12-17T17:51:33;-1.50;99.90
27540;DHT22;15906;52.046;4.724;2022-12-17T17:54:00;-1.50;99.90
27540;DHT22;15906;52.046;4.724;2022-12-17T17:56:35;-1.50;99.90
27540;DHT22;15906;52.046;4.724;2022-12-17T17:59:07;-1.60;99.90
27540;DHT22;15906;52.046;4.724;2022-12-17T18:01:36;-1.60;99.90
27540;DHT22;15906;52.046;4.724;2022-12-17T18:04:07;-1.60;99.90
27540;DHT22;15906;52.046;4.724;2022-12-17T18:06:36;-1.60;99.90
27540;DHT22;15906;52.046;4.724;2022-12-17T18:09:02;-1.60;99.90
27540;DHT22;15906;52.046;4.724;2022-12-17T18:11:29;-1.60;99.90
27540;DHT22;15906;52.046;4.724;2022-12-17T18:13:56;-1.60;99.90
27540;DHT22;15906;52.046;4.724;2022-12-17T18:16:23;-1.60;99.90
27540;DHT22;15906;52.046;4.724;2022-12-17T18:18:51;-1.70;99.90